createdAt,value
2019-05-23T00:00:50.344Z,0.00
2019-05-23T00:01:50.350Z,0.00
2019-05-23T00:02:50.370Z,0.00
2019-05-23T00:03:50.374Z,0.00
2019-05-23T00:04:50.382Z,0.00
2019-05-23T00:05:50.394Z,0.00
2019-05-23T00:06:50.407Z,0.00
2019-05-23T00:07:50.424Z,0.00
2019-05-23T00:08:50.433Z,0.00
2019-05-23T00:09:50.443Z,0.00
2019-05-23T00:10:50.457Z,0.00
2019-05-23T00:11:50.465Z,0.00
2019-05-23T00:12:50.477Z,0.00
2019-05-23T00:13:50.490Z,0.00
2019-05-23T00:14:50.503Z,0.00
2019-05-23T00:15:50.516Z,0.00
2019-05-23T00:16:50.522Z,0.00
2019-05-23T00:17:50.537Z,0.00
2019-05-23T00:18:50.552Z,0.00
2019-05-23T00:19:50.560Z,0.00
2019-05-23T00:20:50.569Z,0.00
2019-05-23T00:21:50.586Z,0.00
2019-05-23T00:22:50.600Z,0.00
2019-05-23T00:23:50.606Z,0.00
2019-05-23T00:24:50.618Z,0.00
2019-05-23T00:25:50.633Z,0.00
2019-05-23T00:26:50.644Z,0.00
2019-05-23T00:27:50.650Z,0.00
2019-05-23T00:28:50.662Z,0.00
2019-05-23T00:29:50.673Z,0.00
2019-05-23T00:30:50.689Z,0.00
2019-05-23T00:31:50.701Z,0.00
2019-05-23T00:32:50.712Z,0.00
2019-05-23T00:33:50.724Z,0.00
2019-05-23T00:34:50.738Z,0.00
2019-05-23T00:35:50.757Z,0.00
2019-05-23T00:36:50.755Z,0.00
2019-05-23T00:37:50.768Z,0.00
2019-05-23T00:38:50.805Z,0.00
2019-05-23T00:39:50.814Z,0.00
2019-05-23T00:40:50.802Z,0.00
2019-05-23T00:41:50.819Z,0.00
2019-05-23T00:42:50.827Z,0.00
2019-05-23T00:43:50.840Z,0.00
2019-05-23T00:44:50.848Z,0.00
2019-05-23T00:45:50.864Z,0.00
2019-05-23T00:46:50.876Z,0.00
2019-05-23T00:47:50.886Z,0.00
2019-05-23T00:48:50.901Z,0.00
2019-05-23T00:49:50.908Z,0.00
2019-05-23T00:50:50.920Z,0.00
2019-05-23T00:51:50.939Z,0.00
2019-05-23T00:52:50.940Z,0.00
2019-05-23T00:53:50.956Z,0.00
2019-05-23T00:54:50.965Z,0.00
2019-05-23T00:55:50.977Z,0.00
2019-05-23T00:56:50.992Z,0.00
2019-05-23T00:57:50.997Z,0.00
2019-05-23T00:58:51.015Z,0.00
2019-05-23T00:59:51.026Z,0.00
2019-05-23T01:00:51.361Z,0.00
2019-05-23T01:01:51.045Z,0.00
2019-05-23T01:02:51.055Z,0.00
2019-05-23T01:03:51.071Z,0.00
2019-05-23T01:04:51.085Z,0.00
2019-05-23T01:05:51.094Z,0.00
2019-05-23T01:06:51.155Z,0.00
2019-05-23T01:07:51.117Z,0.00
2019-05-23T01:08:51.129Z,0.00
2019-05-23T01:09:51.137Z,0.00
2019-05-23T01:10:51.152Z,0.00
2019-05-23T01:11:51.161Z,0.00
2019-05-23T01:12:51.238Z,0.00
2019-05-23T01:13:51.188Z,0.00
2019-05-23T01:14:51.197Z,0.00
2019-05-23T01:15:51.210Z,0.00
2019-05-23T01:16:51.221Z,0.00
2019-05-23T01:17:51.234Z,0.00
2019-05-23T01:18:51.279Z,0.00
2019-05-23T01:19:51.270Z,0.00
2019-05-23T01:20:51.267Z,0.00
2019-05-23T01:21:51.277Z,0.00
2019-05-23T01:22:51.295Z,0.00
2019-05-23T01:23:51.300Z,0.00
2019-05-23T01:24:51.312Z,0.00
2019-05-23T01:25:51.322Z,0.00
2019-05-23T01:26:51.371Z,0.00
2019-05-23T01:27:51.445Z,0.00
2019-05-23T01:28:51.354Z,0.00
2019-05-23T01:29:51.378Z,0.00
2019-05-23T01:30:51.382Z,0.00
2019-05-23T01:31:51.519Z,0.00
2019-05-23T01:32:51.401Z,0.00
2019-05-23T01:33:51.412Z,0.00
2019-05-23T01:34:51.429Z,0.00
2019-05-23T01:35:51.457Z,0.00
2019-05-23T01:36:51.449Z,0.00
2019-05-23T01:37:51.461Z,0.00
2019-05-23T01:38:51.470Z,0.00
2019-05-23T01:39:51.502Z,0.00
2019-05-23T01:40:51.497Z,0.00
2019-05-23T01:41:51.539Z,0.00
2019-05-23T01:42:51.620Z,0.00
2019-05-23T01:43:51.529Z,0.00
2019-05-23T01:44:51.548Z,0.00
2019-05-23T01:45:51.555Z,0.00
2019-05-23T01:46:51.569Z,0.00
2019-05-23T01:47:51.575Z,0.00
2019-05-23T01:48:51.592Z,0.00
2019-05-23T01:49:51.609Z,0.00
2019-05-23T01:50:51.654Z,0.00
2019-05-23T01:51:51.622Z,0.00
2019-05-23T01:52:51.642Z,0.00
2019-05-23T01:53:51.646Z,0.00
2019-05-23T01:54:51.652Z,0.00
2019-05-23T01:55:51.667Z,0.00
2019-05-23T01:56:51.678Z,0.00
2019-05-23T01:57:51.727Z,0.00
2019-05-23T01:58:51.700Z,0.00
2019-05-23T02:00:08.402Z,0.00
2019-05-23T02:00:51.721Z,0.00
2019-05-23T02:01:51.732Z,0.00
2019-05-23T02:02:51.751Z,0.00
2019-05-23T02:03:51.754Z,0.00
2019-05-23T02:04:51.771Z,0.00
2019-05-23T02:05:51.781Z,0.00
2019-05-23T02:06:51.792Z,0.00
2019-05-23T02:07:51.801Z,0.00
2019-05-23T02:08:51.810Z,0.00
2019-05-23T02:09:51.827Z,0.00
2019-05-23T02:10:51.833Z,0.00
2019-05-23T02:11:51.851Z,0.00
2019-05-23T02:12:51.862Z,0.00
2019-05-23T02:13:51.873Z,0.00
2019-05-23T02:14:51.881Z,0.00
2019-05-23T02:15:51.896Z,0.00
2019-05-23T02:16:51.906Z,0.00
2019-05-23T02:17:51.918Z,0.00
2019-05-23T02:18:51.959Z,0.00
2019-05-23T02:19:51.941Z,0.00
2019-05-23T02:20:51.963Z,0.00
2019-05-23T02:21:51.964Z,0.00
2019-05-23T02:22:51.971Z,0.00
2019-05-23T02:23:51.993Z,0.00
2019-05-23T02:24:51.998Z,0.00
2019-05-23T02:25:52.004Z,0.00
2019-05-23T02:26:52.024Z,0.00
2019-05-23T02:27:52.032Z,0.00
2019-05-23T02:28:52.038Z,0.00
2019-05-23T02:29:52.072Z,0.00
2019-05-23T02:30:52.068Z,0.00
2019-05-23T02:31:52.079Z,0.00
2019-05-23T02:32:52.088Z,0.00
2019-05-23T02:33:52.103Z,0.00
2019-05-23T02:34:52.110Z,0.00
2019-05-23T02:35:52.131Z,0.00
2019-05-23T02:36:52.137Z,0.00
2019-05-23T02:37:52.145Z,0.00
2019-05-23T02:38:52.159Z,0.00
2019-05-23T02:39:52.164Z,0.00
2019-05-23T02:40:52.174Z,0.00
2019-05-23T02:41:52.198Z,0.00
2019-05-23T02:42:52.205Z,0.00
2019-05-23T02:43:52.209Z,0.00
2019-05-23T02:44:52.229Z,0.00
2019-05-23T02:45:52.241Z,0.00
2019-05-23T02:46:52.245Z,0.00
2019-05-23T02:47:52.259Z,0.00
2019-05-23T02:48:52.266Z,0.00
2019-05-23T02:49:52.277Z,0.00
2019-05-23T02:50:52.290Z,0.00
2019-05-23T02:51:52.307Z,0.00
2019-05-23T02:52:52.317Z,0.00
2019-05-23T02:53:52.324Z,0.00
2019-05-23T02:54:52.333Z,0.00
2019-05-23T02:55:52.343Z,0.00
2019-05-23T02:56:52.357Z,0.00
2019-05-23T02:57:52.405Z,0.00
2019-05-23T02:58:52.381Z,0.00
2019-05-23T02:59:52.399Z,0.00
2019-05-23T03:00:55.197Z,0.00
2019-05-23T03:01:52.418Z,0.00
2019-05-23T03:02:52.426Z,0.00
2019-05-23T03:03:52.435Z,0.00
2019-05-23T03:04:52.449Z,0.00
2019-05-23T03:05:52.467Z,0.00
2019-05-23T03:06:52.470Z,0.00
2019-05-23T03:07:52.481Z,0.00
2019-05-23T03:08:52.500Z,0.00
2019-05-23T03:09:52.515Z,0.00
2019-05-23T03:10:52.516Z,0.00
2019-05-23T03:11:52.532Z,0.00
2019-05-23T03:12:52.534Z,0.00
2019-05-23T03:13:52.547Z,0.00
2019-05-23T03:14:52.562Z,0.00
2019-05-23T03:15:52.575Z,0.00
2019-05-23T03:16:52.587Z,0.00
2019-05-23T03:17:52.611Z,0.00
2019-05-23T03:18:52.608Z,0.00
2019-05-23T03:19:52.618Z,0.00
2019-05-23T03:20:52.623Z,0.00
2019-05-23T03:21:52.654Z,0.00
2019-05-23T03:22:52.664Z,0.00
2019-05-23T03:23:52.656Z,0.00
2019-05-23T03:24:52.680Z,0.00
2019-05-23T03:25:52.720Z,0.00
2019-05-23T03:26:52.698Z,0.00
2019-05-23T03:27:52.705Z,0.00
2019-05-23T03:28:52.724Z,4.00
2019-05-23T03:29:52.729Z,0.00
2019-05-23T03:30:52.751Z,0.00
2019-05-23T03:31:52.750Z,0.00
2019-05-23T03:32:52.757Z,0.00
2019-05-23T03:33:52.812Z,0.00
2019-05-23T03:34:52.793Z,0.00
2019-05-23T03:35:52.793Z,0.00
2019-05-23T03:36:52.811Z,0.00
2019-05-23T03:37:52.812Z,4.00
2019-05-23T03:38:52.828Z,4.00
2019-05-23T03:39:52.837Z,0.00
2019-05-23T03:40:52.847Z,0.00
2019-05-23T03:41:52.858Z,0.00
2019-05-23T03:42:52.873Z,4.00
2019-05-23T03:43:52.869Z,4.00
2019-05-23T03:44:52.897Z,4.00
2019-05-23T03:45:52.911Z,4.00
2019-05-23T03:46:52.913Z,4.00
2019-05-23T03:47:52.921Z,4.00
2019-05-23T03:48:52.941Z,4.00
2019-05-23T03:49:52.945Z,4.00
2019-05-23T03:50:52.956Z,4.00
2019-05-23T03:51:52.968Z,4.00
2019-05-23T03:52:52.978Z,8.00
2019-05-23T03:53:52.989Z,8.00
2019-05-23T03:54:52.996Z,12.00
2019-05-23T03:55:53.005Z,12.00
2019-05-23T03:56:53.019Z,12.00
2019-05-23T03:57:53.027Z,8.00
2019-05-23T03:58:53.040Z,12.00
2019-05-23T03:59:53.053Z,12.00
2019-05-23T04:00:53.066Z,12.00
2019-05-23T04:01:53.084Z,16.00
2019-05-23T04:02:53.083Z,16.00
2019-05-23T04:03:53.096Z,12.00
2019-05-23T04:04:53.105Z,16.00
2019-05-23T04:05:53.120Z,16.00
2019-05-23T04:06:53.130Z,20.00
2019-05-23T04:07:53.153Z,20.00
2019-05-23T04:08:53.156Z,16.00
2019-05-23T04:09:53.158Z,20.00
2019-05-23T04:10:53.174Z,20.00
2019-05-23T04:11:53.180Z,24.00
2019-05-23T04:12:53.217Z,24.00
2019-05-23T04:13:53.221Z,24.00
2019-05-23T04:14:53.215Z,24.00
2019-05-23T04:15:53.227Z,24.00
2019-05-23T04:16:53.237Z,28.00
2019-05-23T04:17:53.245Z,28.00
2019-05-23T04:18:53.253Z,28.00
2019-05-23T04:19:53.275Z,28.00
2019-05-23T04:20:53.277Z,28.00
2019-05-23T04:21:53.286Z,32.00
2019-05-23T04:22:53.295Z,28.00
2019-05-23T04:23:53.318Z,32.00
2019-05-23T04:24:53.322Z,32.00
2019-05-23T04:25:53.333Z,32.00
2019-05-23T04:26:53.352Z,32.00
2019-05-23T04:27:53.352Z,32.00
2019-05-23T04:28:53.359Z,36.00
2019-05-23T04:29:53.450Z,36.00
2019-05-23T04:30:53.386Z,36.00
2019-05-23T04:32:07.203Z,36.00
2019-05-23T04:32:53.406Z,40.00
2019-05-23T04:33:53.413Z,40.00
2019-05-23T04:34:53.422Z,36.00
2019-05-23T04:35:53.435Z,40.00
2019-05-23T04:36:53.450Z,40.00
2019-05-23T04:37:53.458Z,40.00
2019-05-23T04:38:53.465Z,40.00
2019-05-23T04:39:53.480Z,40.00
2019-05-23T04:40:53.489Z,44.00
2019-05-23T04:41:53.495Z,44.00
2019-05-23T04:42:53.507Z,44.00
2019-05-23T04:43:53.522Z,44.00
2019-05-23T04:44:53.527Z,48.00
2019-05-23T04:45:53.540Z,48.00
2019-05-23T04:46:53.549Z,48.00
2019-05-23T04:47:53.562Z,44.00
2019-05-23T04:48:53.568Z,44.00
2019-05-23T04:49:53.592Z,48.00
2019-05-23T04:50:53.592Z,48.00
2019-05-23T04:51:53.617Z,48.00
2019-05-23T04:52:53.612Z,52.00
2019-05-23T04:53:53.621Z,52.00
2019-05-23T04:54:53.635Z,48.00
2019-05-23T04:55:53.646Z,52.00
2019-05-23T04:56:53.657Z,52.00
2019-05-23T04:57:53.662Z,52.00
2019-05-23T04:58:53.674Z,52.00
2019-05-23T04:59:53.684Z,56.00
2019-05-23T05:00:53.698Z,52.00
2019-05-23T05:01:53.707Z,52.00
2019-05-23T05:02:53.722Z,56.00
2019-05-23T05:03:53.727Z,56.00
2019-05-23T05:04:53.744Z,56.00
2019-05-23T05:05:53.749Z,56.00
2019-05-23T05:06:53.760Z,60.00
2019-05-23T05:07:53.772Z,60.00
2019-05-23T05:08:53.785Z,60.00
2019-05-23T05:09:53.790Z,60.00
2019-05-23T05:10:53.801Z,60.00
2019-05-23T05:11:53.816Z,60.00
2019-05-23T05:12:53.825Z,60.00
2019-05-23T05:13:53.868Z,60.00
2019-05-23T05:14:53.844Z,60.00
2019-05-23T05:15:53.859Z,60.00
2019-05-23T05:16:53.869Z,60.00
2019-05-23T05:17:53.887Z,64.00
2019-05-23T05:18:55.289Z,64.00
2019-05-23T05:19:53.895Z,64.00
2019-05-23T05:20:53.909Z,64.00
2019-05-23T05:21:53.917Z,64.00
2019-05-23T05:22:53.928Z,64.00
2019-05-23T05:23:53.943Z,64.00
2019-05-23T05:24:53.952Z,64.00
2019-05-23T05:25:53.971Z,64.00
2019-05-23T05:26:53.976Z,68.00
2019-05-23T05:27:53.986Z,68.00
2019-05-23T05:28:53.996Z,68.00
2019-05-23T05:29:54.006Z,64.00
2019-05-23T05:30:54.018Z,68.00
2019-05-23T05:31:54.029Z,68.00
2019-05-23T05:32:54.039Z,68.00
2019-05-23T05:33:54.046Z,68.00
2019-05-23T05:34:54.058Z,72.00
2019-05-23T05:35:54.067Z,68.00
2019-05-23T05:36:54.089Z,72.00
2019-05-23T05:37:54.089Z,80.00
2019-05-23T05:38:54.107Z,84.00
2019-05-23T05:39:54.111Z,88.00
2019-05-23T05:40:54.123Z,88.00
2019-05-23T05:41:54.181Z,88.00
2019-05-23T05:42:54.144Z,92.00
2019-05-23T05:43:54.153Z,88.00
2019-05-23T05:44:54.165Z,88.00
2019-05-23T05:45:54.181Z,88.00
2019-05-23T05:46:54.202Z,96.00
2019-05-23T05:47:54.196Z,92.00
2019-05-23T05:48:54.212Z,92.00
2019-05-23T05:49:54.218Z,92.00
2019-05-23T05:50:54.270Z,96.00
2019-05-23T05:51:54.243Z,96.00
2019-05-23T05:52:54.255Z,96.00
2019-05-23T05:53:54.264Z,96.00
2019-05-23T05:54:54.276Z,96.00
2019-05-23T05:55:54.294Z,96.00
2019-05-23T05:56:54.294Z,100.00
2019-05-23T05:57:54.305Z,96.00
2019-05-23T05:58:54.322Z,100.00
2019-05-23T05:59:54.340Z,100.00
2019-05-23T06:00:54.341Z,100.00
2019-05-23T06:01:54.349Z,100.00
2019-05-23T06:03:04.053Z,100.00
2019-05-23T06:03:54.379Z,100.00
2019-05-23T06:04:54.381Z,104.00
2019-05-23T06:05:54.398Z,104.00
2019-05-23T06:06:54.407Z,104.00
2019-05-23T06:07:54.414Z,104.00
2019-05-23T06:08:54.436Z,104.00
2019-05-23T06:09:54.439Z,108.00
2019-05-23T06:10:54.464Z,108.00
2019-05-23T06:11:54.465Z,108.00
2019-05-23T06:12:54.470Z,108.00
2019-05-23T06:13:54.635Z,108.00
2019-05-23T06:14:54.516Z,108.00
2019-05-23T06:15:54.508Z,108.00
2019-05-23T06:16:54.527Z,112.00
2019-05-23T06:17:54.529Z,108.00
2019-05-23T06:18:54.570Z,108.00
2019-05-23T06:19:54.597Z,112.00
2019-05-23T06:20:54.588Z,108.00
2019-05-23T06:21:54.574Z,112.00
2019-05-23T06:22:54.584Z,112.00
2019-05-23T06:23:54.601Z,116.00
2019-05-23T06:24:56.693Z,116.00
2019-05-23T06:25:54.626Z,112.00
2019-05-23T06:26:54.625Z,116.00
2019-05-23T06:27:54.641Z,116.00
2019-05-23T06:28:54.650Z,120.00
2019-05-23T06:29:54.659Z,116.00
2019-05-23T06:30:54.675Z,116.00
2019-05-23T06:31:54.682Z,116.00
2019-05-23T06:32:54.695Z,116.00
2019-05-23T06:33:54.706Z,120.00
2019-05-23T06:34:54.719Z,120.00
2019-05-23T06:35:54.727Z,120.00
2019-05-23T06:36:54.747Z,124.00
2019-05-23T06:37:54.750Z,120.00
2019-05-23T06:38:54.759Z,124.00
2019-05-23T06:39:54.776Z,124.00
2019-05-23T06:40:54.793Z,124.00
2019-05-23T06:41:54.797Z,124.00
2019-05-23T06:42:54.812Z,124.00
2019-05-23T06:43:54.820Z,128.00
2019-05-23T06:44:54.830Z,128.00
2019-05-23T06:45:54.843Z,128.00
2019-05-23T06:46:54.870Z,132.00
2019-05-23T06:47:54.874Z,128.00
2019-05-23T06:48:54.878Z,132.00
2019-05-23T06:49:54.886Z,132.00
2019-05-23T06:50:54.896Z,132.00
2019-05-23T06:51:54.908Z,136.00
2019-05-23T06:52:54.916Z,132.00
2019-05-23T06:53:54.927Z,136.00
2019-05-23T06:54:54.975Z,140.00
2019-05-23T06:55:54.980Z,136.00
2019-05-23T06:56:54.959Z,140.00
2019-05-23T06:57:54.972Z,140.00
2019-05-23T06:58:54.983Z,140.00
2019-05-23T06:59:54.993Z,144.00
2019-05-23T07:00:55.061Z,140.00
2019-05-23T07:01:55.019Z,144.00
2019-05-23T07:02:55.033Z,144.00
2019-05-23T07:03:55.039Z,148.00
2019-05-23T07:04:55.051Z,148.00
2019-05-23T07:05:55.061Z,148.00
2019-05-23T07:06:55.123Z,152.00
2019-05-23T07:07:55.086Z,148.00
2019-05-23T07:08:55.095Z,152.00
2019-05-23T07:09:55.112Z,152.00
2019-05-23T07:10:55.123Z,152.00
2019-05-23T07:11:55.138Z,156.00
2019-05-23T07:12:55.142Z,156.00
2019-05-23T07:13:55.161Z,156.00
2019-05-23T07:14:55.169Z,160.00
2019-05-23T07:15:55.178Z,160.00
2019-05-23T07:16:55.186Z,160.00
2019-05-23T07:17:55.201Z,160.00
2019-05-23T07:18:55.214Z,164.00
2019-05-23T07:19:55.226Z,164.00
2019-05-23T07:20:55.237Z,164.00
2019-05-23T07:21:55.244Z,168.00
2019-05-23T07:22:55.285Z,168.00
2019-05-23T07:23:55.271Z,168.00
2019-05-23T07:24:58.669Z,168.00
2019-05-23T07:25:55.294Z,172.00
2019-05-23T07:26:55.301Z,172.00
2019-05-23T07:27:55.328Z,172.00
2019-05-23T07:28:55.326Z,176.00
2019-05-23T07:29:55.336Z,180.00
2019-05-23T07:30:55.348Z,180.00
2019-05-23T07:31:55.363Z,184.00
2019-05-23T07:32:55.372Z,184.00
2019-05-23T07:34:01.819Z,188.00
2019-05-23T07:34:55.399Z,188.00
2019-05-23T07:35:55.414Z,188.00
2019-05-23T07:36:55.424Z,192.00
2019-05-23T07:37:55.453Z,192.00
2019-05-23T07:38:55.479Z,196.00
2019-05-23T07:39:55.454Z,196.00
2019-05-23T07:40:55.467Z,196.00
2019-05-23T07:41:55.483Z,200.00
2019-05-23T07:42:55.489Z,204.00
2019-05-23T07:43:55.518Z,204.00
2019-05-23T07:44:55.512Z,208.00
2019-05-23T07:45:55.531Z,208.00
2019-05-23T07:46:55.537Z,212.00
2019-05-23T07:47:55.558Z,216.00
2019-05-23T07:48:55.559Z,216.00
2019-05-23T07:49:55.574Z,216.00
2019-05-23T07:50:55.584Z,220.00
2019-05-23T07:51:55.604Z,224.00
2019-05-23T07:52:55.611Z,228.00
2019-05-23T07:53:55.798Z,224.00
2019-05-23T07:54:55.640Z,228.00
2019-05-23T07:55:55.668Z,228.00
2019-05-23T07:56:55.654Z,232.00
2019-05-23T07:57:55.679Z,236.00
2019-05-23T07:58:55.684Z,236.00
2019-05-23T07:59:55.708Z,240.00
2019-05-23T08:00:55.724Z,240.00
2019-05-23T08:01:55.729Z,248.00
2019-05-23T08:02:55.728Z,244.00
2019-05-23T08:03:55.746Z,252.00
2019-05-23T08:04:55.753Z,252.00
2019-05-23T08:05:55.806Z,256.00
2019-05-23T08:06:55.778Z,256.00
2019-05-23T08:07:55.818Z,260.00
2019-05-23T08:08:55.804Z,264.00
2019-05-23T08:09:55.814Z,264.00
2019-05-23T08:10:55.833Z,264.00
2019-05-23T08:11:55.854Z,268.00
2019-05-23T08:12:55.853Z,272.00
2019-05-23T08:13:55.922Z,276.00
2019-05-23T08:14:55.879Z,280.00
2019-05-23T08:15:55.889Z,280.00
2019-05-23T08:16:55.901Z,284.00
2019-05-23T08:17:55.918Z,284.00
2019-05-23T08:18:55.928Z,288.00
2019-05-23T08:19:55.948Z,292.00
2019-05-23T08:20:55.951Z,296.00
2019-05-23T08:21:55.966Z,296.00
2019-05-23T08:22:55.974Z,304.00
2019-05-23T08:23:55.989Z,304.00
2019-05-23T08:24:56.012Z,308.00
2019-05-23T08:25:56.014Z,308.00
2019-05-23T08:26:56.027Z,316.00
2019-05-23T08:27:56.037Z,320.00
2019-05-23T08:29:22.191Z,320.00
2019-05-23T08:29:56.059Z,324.00
2019-05-23T08:30:56.076Z,328.00
2019-05-23T08:31:56.097Z,328.00
2019-05-23T08:32:56.133Z,332.00
2019-05-23T08:33:56.109Z,336.00
2019-05-23T08:34:56.124Z,340.00
2019-05-23T08:35:56.136Z,344.00
2019-05-23T08:36:56.148Z,348.00
2019-05-23T08:37:56.167Z,352.00
2019-05-23T08:38:56.181Z,356.00
2019-05-23T08:39:56.187Z,356.00
2019-05-23T08:40:56.211Z,360.00
2019-05-23T08:41:56.218Z,364.00
2019-05-23T08:42:56.225Z,368.00
2019-05-23T08:43:56.236Z,368.00
2019-05-23T08:44:56.252Z,376.00
2019-05-23T08:45:56.267Z,380.00
2019-05-23T08:46:56.275Z,384.00
2019-05-23T08:47:56.293Z,388.00
2019-05-23T08:48:56.301Z,392.00
2019-05-23T08:49:56.313Z,392.00
2019-05-23T08:50:56.328Z,400.00
2019-05-23T08:51:56.340Z,400.00
2019-05-23T08:52:56.356Z,404.00
2019-05-23T08:53:56.374Z,408.00
2019-05-23T08:54:56.381Z,412.00
2019-05-23T08:55:56.398Z,412.00
2019-05-23T08:56:56.403Z,416.00
2019-05-23T08:57:56.530Z,424.00
2019-05-23T08:58:56.435Z,424.00
2019-05-23T08:59:56.449Z,428.00
2019-05-23T09:00:56.464Z,432.00
2019-05-23T09:01:56.473Z,436.00
2019-05-23T09:02:58.695Z,444.00
2019-05-23T09:03:56.499Z,448.00
2019-05-23T09:05:04.268Z,448.00
2019-05-23T09:05:56.522Z,452.00
2019-05-23T09:06:56.547Z,460.00
2019-05-23T09:07:56.551Z,464.00
2019-05-23T09:08:56.562Z,468.00
2019-05-23T09:09:56.587Z,472.00
2019-05-23T09:10:56.602Z,476.00
2019-05-23T09:11:56.612Z,484.00
2019-05-23T09:12:56.629Z,488.00
2019-05-23T09:13:56.635Z,492.00
2019-05-23T09:14:56.644Z,496.00
2019-05-23T09:15:56.663Z,500.00
2019-05-23T09:16:56.674Z,508.00
2019-05-23T09:17:56.683Z,516.00
2019-05-23T09:18:56.701Z,520.00
2019-05-23T09:19:56.712Z,528.00
2019-05-23T09:20:56.730Z,532.00
2019-05-23T09:21:57.929Z,536.00
2019-05-23T09:22:56.761Z,544.00
2019-05-23T09:23:56.771Z,548.00
2019-05-23T09:24:56.784Z,552.00
2019-05-23T09:25:56.800Z,556.00
2019-05-23T09:26:56.813Z,564.00
2019-05-23T09:27:56.827Z,568.00
2019-05-23T09:28:56.859Z,572.00
2019-05-23T09:29:56.851Z,580.00
2019-05-23T09:30:56.872Z,588.00
2019-05-23T09:31:56.878Z,592.00
2019-05-23T09:32:56.892Z,600.00
2019-05-23T09:33:56.906Z,604.00
2019-05-23T09:34:56.922Z,612.00
2019-05-23T09:35:56.945Z,616.00
2019-05-23T09:37:00.169Z,624.00
2019-05-23T09:37:56.970Z,632.00
2019-05-23T09:38:56.977Z,636.00
2019-05-23T09:39:56.996Z,644.00
2019-05-23T09:40:57.011Z,648.00
2019-05-23T09:41:57.021Z,656.00
2019-05-23T09:42:57.039Z,660.00
2019-05-23T09:43:57.054Z,668.00
2019-05-23T09:44:57.070Z,672.00
2019-05-23T09:45:57.091Z,676.00
2019-05-23T09:46:57.096Z,684.00
2019-05-23T09:47:57.113Z,692.00
2019-05-23T09:48:57.122Z,700.00
2019-05-23T09:49:57.138Z,704.00
2019-05-23T09:50:57.187Z,708.00
2019-05-23T09:52:00.951Z,716.00
2019-05-23T09:52:57.192Z,720.00
2019-05-23T09:53:57.199Z,724.00
2019-05-23T09:54:57.212Z,732.00
2019-05-23T09:55:57.234Z,732.00
2019-05-23T09:56:57.245Z,736.00
2019-05-23T09:57:57.259Z,740.00
2019-05-23T09:58:57.268Z,748.00
2019-05-23T09:59:57.344Z,756.00
2019-05-23T10:00:57.323Z,760.00
2019-05-23T10:01:57.335Z,768.00
2019-05-23T10:02:57.329Z,776.00
2019-05-23T10:03:57.351Z,780.00
2019-05-23T10:04:57.357Z,788.00
2019-05-23T10:05:57.374Z,796.00
2019-05-23T10:06:57.398Z,804.00
2019-05-23T10:07:57.408Z,808.00
2019-05-23T10:08:57.421Z,816.00
2019-05-23T10:09:57.437Z,820.00
2019-05-23T10:10:57.463Z,828.00
2019-05-23T10:11:57.467Z,832.00
2019-05-23T10:12:57.484Z,840.00
2019-05-23T10:13:57.504Z,844.00
2019-05-23T10:14:57.513Z,852.00
2019-05-23T10:15:57.542Z,860.00
2019-05-23T10:16:57.543Z,864.00
2019-05-23T10:18:00.756Z,868.00
2019-05-23T10:18:57.573Z,868.00
2019-05-23T10:19:57.591Z,880.00
2019-05-23T10:20:57.606Z,872.00
2019-05-23T10:21:57.623Z,876.00
2019-05-23T10:22:57.633Z,896.00
2019-05-23T10:23:57.649Z,908.00
2019-05-23T10:24:57.666Z,916.00
2019-05-23T10:25:57.689Z,916.00
2019-05-23T10:26:57.700Z,920.00
2019-05-23T10:27:57.713Z,928.00
2019-05-23T10:28:57.742Z,928.00
2019-05-23T10:29:57.743Z,928.00
2019-05-23T10:30:57.772Z,940.00
2019-05-23T10:31:57.774Z,948.00
2019-05-23T10:32:57.790Z,952.00
2019-05-23T10:33:57.807Z,956.00
2019-05-23T10:34:57.828Z,960.00
2019-05-23T10:36:01.014Z,968.00
2019-05-23T10:36:57.855Z,976.00
2019-05-23T10:37:57.881Z,976.00
2019-05-23T10:38:57.889Z,980.00
2019-05-23T10:39:57.907Z,988.00
2019-05-23T10:40:57.926Z,988.00
2019-05-23T10:41:57.946Z,988.00
2019-05-23T10:42:57.951Z,992.00
2019-05-23T10:43:57.971Z,996.00
2019-05-23T10:44:57.984Z,996.00
2019-05-23T10:45:58.001Z,984.00
2019-05-23T10:46:58.019Z,992.00
2019-05-23T10:47:58.037Z,972.00
2019-05-23T10:48:58.051Z,992.00
2019-05-23T10:49:58.066Z,1016.00
2019-05-23T10:50:58.085Z,1032.00
2019-05-23T10:51:58.098Z,1040.00
2019-05-23T10:52:58.129Z,1040.00
2019-05-23T10:53:58.139Z,1044.00
2019-05-23T10:54:58.172Z,1052.00
2019-05-23T10:55:58.203Z,1060.00
2019-05-23T10:56:58.202Z,1028.00
2019-05-23T10:57:58.199Z,1048.00
2019-05-23T10:58:58.214Z,1068.00
2019-05-23T10:59:58.234Z,1076.00
2019-05-23T11:00:58.251Z,1084.00
2019-05-23T11:01:58.268Z,1084.00
2019-05-23T11:02:58.282Z,1088.00
2019-05-23T11:03:58.297Z,1096.00
2019-05-23T11:04:58.332Z,1104.00
2019-05-23T11:05:58.332Z,1108.00
2019-05-23T11:06:58.352Z,1112.00
2019-05-23T11:07:58.370Z,1112.00
2019-05-23T11:08:58.392Z,1120.00
2019-05-23T11:09:58.400Z,1124.00
2019-05-23T11:10:58.418Z,1128.00
2019-05-23T11:11:58.437Z,1132.00
2019-05-23T11:12:58.480Z,1140.00
2019-05-23T11:13:58.467Z,1140.00
2019-05-23T11:14:58.487Z,1120.00
2019-05-23T11:15:58.504Z,1112.00
2019-05-23T11:16:58.522Z,1132.00
2019-05-23T11:17:58.542Z,1148.00
2019-05-23T11:18:58.578Z,1136.00
2019-05-23T11:19:58.575Z,1136.00
2019-05-23T11:20:58.589Z,1140.00
2019-05-23T11:21:58.611Z,1144.00
2019-05-23T11:22:58.629Z,1152.00
2019-05-23T11:23:58.640Z,1156.00
2019-05-23T11:24:58.662Z,1152.00
2019-05-23T11:26:01.150Z,1156.00
2019-05-23T11:26:58.692Z,1144.00
2019-05-23T11:27:58.713Z,1136.00
2019-05-23T11:28:58.725Z,1152.00
2019-05-23T11:29:58.755Z,1164.00
2019-05-23T11:30:58.835Z,1168.00
2019-05-23T11:31:58.777Z,1168.00
2019-05-23T11:32:58.804Z,1180.00
2019-05-23T11:33:58.809Z,1188.00
2019-05-23T11:34:58.826Z,1196.00
2019-05-23T11:35:58.841Z,1196.00
2019-05-23T11:36:58.858Z,1204.00
2019-05-23T11:37:58.874Z,1204.00
2019-05-23T11:38:58.895Z,1204.00
2019-05-23T11:39:58.911Z,1220.00
2019-05-23T11:40:58.924Z,1200.00
2019-05-23T11:41:58.944Z,1204.00
2019-05-23T11:42:58.960Z,1220.00
2019-05-23T11:43:59.001Z,1212.00
2019-05-23T11:44:59.011Z,1232.00
2019-05-23T11:45:59.015Z,1236.00
2019-05-23T11:46:59.034Z,1236.00
2019-05-23T11:47:59.050Z,1216.00
2019-05-23T11:48:59.068Z,1220.00
2019-05-23T11:49:59.082Z,1188.00
2019-05-23T11:50:59.104Z,1236.00
2019-05-23T11:51:59.121Z,1248.00
2019-05-23T11:52:59.203Z,1252.00
2019-05-23T11:54:07.961Z,1260.00
2019-05-23T11:54:59.173Z,1268.00
2019-05-23T11:55:59.191Z,1268.00
2019-05-23T11:56:59.202Z,1268.00
2019-05-23T11:57:59.230Z,1268.00
2019-05-23T11:59:01.531Z,1272.00
2019-05-23T11:59:59.260Z,1280.00
2019-05-23T12:00:59.318Z,1280.00
2019-05-23T12:01:59.295Z,1280.00
2019-05-23T12:02:59.313Z,1280.00
2019-05-23T12:03:59.375Z,1284.00
2019-05-23T12:04:59.345Z,1288.00
2019-05-23T12:05:59.365Z,1292.00
2019-05-23T12:06:59.386Z,1292.00
2019-05-23T12:07:59.407Z,1296.00
2019-05-23T12:08:59.460Z,1296.00
2019-05-23T12:09:59.435Z,1304.00
2019-05-23T12:10:59.460Z,1304.00
2019-05-23T12:11:59.473Z,1304.00
2019-05-23T12:12:59.483Z,1304.00
2019-05-23T12:13:59.506Z,1304.00
2019-05-23T12:14:59.524Z,1308.00
2019-05-23T12:15:59.541Z,1308.00
2019-05-23T12:16:59.556Z,1312.00
2019-05-23T12:17:59.582Z,1312.00
2019-05-23T12:18:59.597Z,1312.00
2019-05-23T12:19:59.621Z,1316.00
2019-05-23T12:20:59.957Z,1316.00
2019-05-23T12:21:59.672Z,1320.00
2019-05-23T12:22:59.685Z,1324.00
2019-05-23T12:23:59.686Z,1328.00
2019-05-23T12:25:18.171Z,1328.00
2019-05-23T12:25:59.716Z,1328.00
2019-05-23T12:26:59.743Z,1336.00
2019-05-23T12:27:59.760Z,1332.00
2019-05-23T12:28:59.776Z,1336.00
2019-05-23T12:29:59.805Z,1328.00
2019-05-23T12:30:59.809Z,1328.00
2019-05-23T12:31:59.836Z,1336.00
2019-05-23T12:32:59.895Z,1332.00
2019-05-23T12:33:59.870Z,1332.00
2019-05-23T12:35:10.621Z,1340.00
2019-05-23T12:35:59.905Z,1340.00
2019-05-23T12:37:18.131Z,1336.00
2019-05-23T12:38:02.400Z,1328.00
2019-05-23T12:38:59.958Z,1332.00
2019-05-23T12:39:59.981Z,1328.00
2019-05-23T12:41:00.013Z,1332.00
2019-05-23T12:42:00.017Z,1356.00
2019-05-23T12:43:00.032Z,1344.00
2019-05-23T12:44:00.051Z,1372.00